Observations for ABERDEEN DYCE, United Kingdom (EGPD)

EGPD 242020Z AUTO VRB03KT 9999 NCD 07/05 Q1002 NOSIG
EGPD 241950Z AUTO 03004KT 9999 NCD 08/06 Q1002 NOSIG
EGPD 241920Z AUTO VRB02KT 9999 BKN044/// //////TCU 08/06 Q1002 NOSIG
EGPD 241850Z AUTO VRB03KT 9999 BKN047 09/05 Q1002 NOSIG 
EGPD 241820Z AUTO 04004KT 020V080 9999 //////TCU 09/06 Q1002 NOSIG  
EGPD 241750Z AUTO 05005KT 030V090 9999 SCT034/// //////TCU 09/06 Q1002 NOSIG
EGPD 241720Z 01007KT 340V050 9000 -SHRA SCT036CB BKN046 10/05 Q1002 TEMPO SHRA  
EGPD 241650Z 36005KT 9999 VCSH FEW034CB 12/03 Q1002 NOSIG   
EGPD 241620Z 01006KT 9999 VCSH FEW034CB 13/02 Q1002 NOSIG   
EGPD 241550Z 27007KT 240V310 9999 VCSH SCT034CB 14/02 Q1002 NOSIG   
EGPD 241520Z AUTO 28006KT 230V320 9999 //////TCU 14/01 Q1002 NOSIG  
EGPD 241450Z AUTO 25008KT 200V300 9999 NCD 14/00 Q1002 NOSIG
EGPD 241420Z AUTO 24008KT 200V320 9999 NCD 14/01 Q1003 NOSIG
EGPD 241350Z AUTO 26010KT 210V290 9999 NCD 15/01 Q1003 NOSIG
EGPD 241320Z AUTO 27011KT 220V310 9999 NCD 14/01 Q1003 NOSIG
EGPD 241250Z AUTO 28013KT 230V310 9999 NCD 14/01 Q1004 NOSIG
EGPD 241220Z AUTO 29014KT 9999 NCD 15/02 Q1003 NOSIG
EGPD 241150Z AUTO 28014KT 240V300 9999 NCD 14/01 Q1003 NOSIG
EGPD 241120Z AUTO 26017KT 9999 NCD 14/01 Q1003 NOSIG
EGPD 241050Z AUTO 26016KT 9999 BKN049 13/01 Q1004 NOSIG 
EGPD 241020Z AUTO 26015KT 9999 BKN046 13/01 Q1004 NOSIG 
EGPD 240950Z AUTO 28014KT 230V310 9999 BKN044 13/02 Q1004 NOSIG 
EGPD 240920Z AUTO 24013KT 9999 BKN042 12/03 Q1004 NOSIG 
EGPD 240850Z 28009KT 9999 BKN040 11/03 Q1003 NOSIG  
EGPD 240820Z AUTO 24009KT 200V290 9999 SCT042 11/03 Q1003 NOSIG 
EGPD 240750Z AUTO 24013KT 9999 SCT037 10/02 Q1003   
EGPD 240720Z AUTO 24010KT 9999 FEW037 10/03 Q1003   
EGPD 240650Z AUTO 25009KT 9999 NCD 09/02 Q1003  
EGPD 240620Z AUTO 26013KT 9999 NCD 08/02 Q1002  
EGPD 240550Z AUTO 24008KT 190V270 9999 NCD 07/02 Q1002 NOSIG
EGPD 240520Z AUTO 25007KT 210V270 9999 NCD 07/02 Q1002 NOSIG
EGPD 240450Z AUTO 26008KT 9999 NCD 06/02 Q1002 NOSIG
EGPD 240420Z AUTO 25005KT 210V350 9999 NCD 07/01 Q1002 NOSIG
EGPD 240350Z AUTO 27004KT 220V340 9999 NCD 08/01 Q1002 NOSIG
EGPD 240320Z AUTO 28010KT 9999 NCD 08/02 Q1001 NOSIG
EGPD 240250Z AUTO 26012KT 9999 NCD 08/02 Q1001 NOSIG
EGPD 240220Z AUTO 27017KT 9999 NCD 08/03 Q1001 NOSIG
EGPD 240150Z AUTO 27014KT 9999 NCD 09/03 Q1001 NOSIG
EGPD 240120Z AUTO 28017KT 9999 NCD 09/03 Q1000 NOSIG
EGPD 240050Z AUTO 27013G24KT 230V300 9999 FEW038 10/06 Q1000 NOSIG  
EGPD 240020Z AUTO 29016KT 9999 BKN029 11/06 Q1000 BECMG BKN013  
EGPD 232350Z AUTO 28015KT 9999 FEW033 BKN040 11/06 Q1000 BECMG BKN013   
EGPD 232320Z AUTO 25010KT 9999 BKN032 10/07 Q0999 BECMG BKN013  
EGPD 232250Z AUTO 23007KT 9999 BKN036 BKN045 09/07 Q0999 BECMG BKN013   
EGPD 232220Z AUTO 20006KT 140V220 9999 BKN042 09/07 Q0999 BECMG BKN013  
EGPD 232150Z AUTO 18006KT 9999 BKN013 09/07 Q0999 NOSIG 
EGPD 232120Z AUTO 15006KT 110V170 9999 OVC013 09/07 Q0999 NOSIG 
EGPD 232050Z AUTO 17007KT 9999 OVC013 09/07 Q1000 BECMG BKN020  
EGPD 232020Z AUTO 17007KT 9999 OVC013 09/07 Q1000 BECMG BKN020  
EGPD 231950Z AUTO 17008KT 9999 -RA BKN021 09/06 Q1001 NOSIG